Amsterdam, Netherlands

10:59 AM CEST on April 01, 2015 (GMT +0200)
Schiphol | | Change Station
CLOSE
Current Station
Personal Weather Station
Location: Badhoevedorp, NOORD HOLLAND
Elevation: -10 ft
Nearby Weather Stations
Active Advisory: Wind nederlands:

Elev -10 ft 52.33 °N, 4.78 °E | Updated 6 minutes ago

Overcast
Overcast
43.4 °F
Feels Like 37 °F
N
12.0
Wind Variable Wind from WNW
Gusts 26.0 mph

Today
High -- | Low -- °F
--% Chance of Precip.
Yesterday
High -- | Low -- °F
Precip. -- in
7:16 AM 8:14 PM
Waxing Gibbous, 91% visible
Pressure 30.01 in
Visibility 6.2 miles
Clouds Few 2000 ft
Scattered Clouds 4800 ft
Windchill 37 °F
Dew Point 36 °F
Humidity 76%
Rainfall 0.00 in
Snow Depth Not available.
UV 0.0 out of 12
Pollen Not available.
Air Quality Not available.
Flu Activity Not available.
METAR EHAM 010855Z 29020KT 260V320 9999 -SHRAGS FEW020CB SCT048 06/02 Q1016 TEMPO 30028G38KT 7000

More Conditions Fewer Conditions

Pressure 30.01 in
Visibility 6.2 miles
Clouds Few 2000 ft
Scattered Clouds 4800 ft
Windchill 37 °F
Dew Point 36 °F
Humidity 76%
Rainfall 0.00 in
Snow Depth Not available.
UV 0.0 out of 12
Pollen Not available.
Air Quality Not available.
Flu Activity Not available.
METAR EHAM 010855Z 29020KT 260V320 9999 -SHRAGS FEW020CB SCT048 06/02 Q1016 TEMPO 30028G38KT 7000

More Conditions Fewer Conditions

10-Day Weather Forecast

Almanac

Astronomy

Apr. 01, 2015 Rise Set
Actual Time
Civil Twilight
Nautical Twilight
Astronomical Twilight
Moon
Length of Visible Light
Length of Day
Tomorrow will be .
, % of the Moon is Illuminated

Today's Extremes

Country Highs Country Lows

Community

WunderPhotos

Upload Photos

1,809,933 photos uploaded!

WunderBlogs® & News

Nearby

Air Quality

  Air Quality AQ Index Pollutant
Not available.

Snow Depth

Station Depth Elevation

Earthquake Activity

City Distance Mag. Time & Date
Minimum magnitude displayed is 2.5.

Coastal Water Temperatures

Place Temperature

Stations

Nearby Weather Stations

Station Location Temp. Windchill Dew Point Humidity Wind Precip. Elev Updated Type